createdAt,value
2023-05-23T00:01:17.352Z,100054.34
2023-05-23T00:05:29.743Z,100055.56
2023-05-23T00:09:42.175Z,100054.59
2023-05-23T00:13:54.580Z,100053.16
2023-05-23T00:18:09.251Z,100050.31
2023-05-23T00:22:22.291Z,100052.53
2023-05-23T00:26:34.762Z,100045.94
2023-05-23T00:30:47.674Z,100042.59
2023-05-23T00:35:00.555Z,100028.47
2023-05-23T00:39:19.963Z,100044.31
2023-05-23T00:43:33.357Z,100047.34
2023-05-23T00:47:48.294Z,100039.94
2023-05-23T00:52:02.338Z,100046.13
2023-05-23T00:56:15.021Z,100035.72
2023-05-23T01:00:27.908Z,100041.16
2023-05-23T01:04:40.648Z,100039.28
2023-05-23T01:08:53.116Z,100029.50
2023-05-23T01:13:21.059Z,100026.38
2023-05-23T01:17:58.824Z,100019.41
2023-05-23T01:22:44.598Z,100023.41
2023-05-23T01:27:06.070Z,100019.00
2023-05-23T01:31:19.055Z,100021.44
2023-05-23T01:35:32.263Z,100011.00
2023-05-23T01:39:44.646Z,100015.34
2023-05-23T01:43:57.062Z,100014.09
2023-05-23T01:48:12.201Z,100010.56
2023-05-23T01:52:25.584Z,100011.78
2023-05-23T01:56:38.422Z,100017.34
2023-05-23T02:00:51.413Z,100013.47
2023-05-23T02:05:04.629Z,100014.06
2023-05-23T02:09:17.226Z,100009.72
2023-05-23T02:13:30.628Z,100012.84
2023-05-23T02:17:43.369Z,100022.34
2023-05-23T02:21:56.060Z,100013.91
2023-05-23T02:26:08.626Z,100032.88
2023-05-23T02:30:21.575Z,100026.16
2023-05-23T02:34:35.194Z,100031.91
2023-05-23T02:38:47.665Z,100038.53
2023-05-23T02:43:00.167Z,100031.84
2023-05-23T02:47:12.716Z,100031.34
2023-05-23T02:51:25.180Z,100033.38
2023-05-23T02:55:38.904Z,100032.63
2023-05-23T02:59:51.639Z,100027.63
2023-05-23T03:04:04.631Z,100029.97
2023-05-23T03:08:17.147Z,100033.88
2023-05-23T03:12:29.832Z,100030.34
2023-05-23T03:16:42.476Z,100028.69
2023-05-23T03:20:54.969Z,100033.75
2023-05-23T03:25:09.549Z,100033.38
2023-05-23T03:29:21.936Z,100031.81
2023-05-23T03:33:34.372Z,100039.84
2023-05-23T03:37:46.801Z,100038.13
2023-05-23T03:41:59.144Z,100035.16
2023-05-23T03:46:11.966Z,100043.63
2023-05-23T03:50:25.059Z,100048.41
2023-05-23T03:54:37.564Z,100055.94
2023-05-23T03:58:50.078Z,100049.34
2023-05-23T04:03:02.591Z,100051.16
2023-05-23T04:07:16.017Z,100055.75
2023-05-23T04:11:30.458Z,100050.25
2023-05-23T04:15:43.436Z,100057.28
2023-05-23T04:19:58.303Z,100051.66
2023-05-23T04:24:11.986Z,100060.38
2023-05-23T04:28:27.941Z,100057.69
2023-05-23T04:32:42.690Z,100053.19
2023-05-23T04:36:55.710Z,100045.91
2023-05-23T04:41:13.729Z,100060.09
2023-05-23T04:45:29.073Z,100061.06
2023-05-23T04:49:48.288Z,100064.34
2023-05-23T04:54:00.770Z,100054.53
2023-05-23T04:58:13.422Z,100048.81
2023-05-23T05:02:27.479Z,100044.94
2023-05-23T05:06:41.716Z,100049.66
2023-05-23T05:10:56.150Z,100040.31
2023-05-23T05:15:09.540Z,100052.09
2023-05-23T05:19:23.241Z,100045.47
2023-05-23T05:23:37.060Z,100040.97
2023-05-23T05:27:51.259Z,100041.88
2023-05-23T05:32:09.315Z,100049.47
2023-05-23T05:36:22.347Z,100047.28
2023-05-23T05:40:36.147Z,100054.16
2023-05-23T05:44:49.961Z,100058.84
2023-05-23T05:49:02.566Z,100057.06
2023-05-23T05:53:15.071Z,100055.13
2023-05-23T05:57:27.740Z,100059.56
2023-05-23T06:01:41.195Z,100051.97
2023-05-23T06:05:54.190Z,100053.25
2023-05-23T06:10:08.965Z,100048.78
2023-05-23T06:14:21.644Z,100051.09
2023-05-23T06:18:34.565Z,100050.16
2023-05-23T06:22:48.617Z,100057.34
2023-05-23T06:27:01.262Z,100051.81
2023-05-23T06:31:13.898Z,100049.22
2023-05-23T06:35:26.313Z,100055.06
2023-05-23T06:39:38.877Z,100050.50
2023-05-23T06:43:51.377Z,100053.72
2023-05-23T06:48:11.975Z,100053.41
2023-05-23T06:52:24.407Z,100046.25
2023-05-23T06:56:37.218Z,100048.88
2023-05-23T07:00:50.932Z,100061.41
2023-05-23T07:05:16.582Z,100049.94
2023-05-23T07:09:35.620Z,100055.22
2023-05-23T07:13:55.511Z,100061.50
2023-05-23T07:18:21.065Z,100049.88
2023-05-23T07:22:33.689Z,100046.00
2023-05-23T07:26:46.531Z,100041.03
2023-05-23T07:30:59.247Z,100044.91
2023-05-23T07:35:12.793Z,100034.28
2023-05-23T07:39:26.161Z,100042.78
2023-05-23T07:43:40.096Z,100035.69
2023-05-23T07:47:53.178Z,100037.06
2023-05-23T07:52:07.253Z,100027.22
2023-05-23T07:56:22.496Z,100041.69
2023-05-23T08:00:37.333Z,100041.09
2023-05-23T08:04:57.649Z,100044.72
2023-05-23T08:09:10.695Z,100033.28
2023-05-23T08:13:27.965Z,100048.53
2023-05-23T08:18:02.987Z,100038.22
2023-05-23T08:22:15.660Z,100043.00
2023-05-23T08:26:35.033Z,100047.19
2023-05-23T08:30:50.052Z,100052.72
2023-05-23T08:35:02.591Z,100048.63
2023-05-23T08:39:15.858Z,100052.72
2023-05-23T08:43:44.170Z,100061.13
2023-05-23T08:48:03.205Z,100058.06
2023-05-23T08:52:22.592Z,100055.53
2023-05-23T08:56:38.999Z,100057.25
2023-05-23T09:00:54.520Z,100045.34
2023-05-23T09:05:10.074Z,100048.88
2023-05-23T09:09:22.833Z,100048.59
2023-05-23T09:13:35.999Z,100040.66
2023-05-23T09:17:51.646Z,100043.81
2023-05-23T09:22:04.478Z,100037.31
2023-05-23T09:26:23.074Z,100037.84
2023-05-23T09:30:35.603Z,100040.84
2023-05-23T09:35:01.210Z,100036.78
2023-05-23T09:39:13.633Z,100032.63
2023-05-23T09:43:29.533Z,100037.28
2023-05-23T09:47:52.528Z,100026.75
2023-05-23T09:52:05.260Z,100031.63
2023-05-23T09:56:17.984Z,100031.00
2023-05-23T10:00:30.592Z,100028.06
2023-05-23T10:04:43.992Z,100028.78
2023-05-23T10:09:06.642Z,100026.06
2023-05-23T10:13:19.783Z,100023.91
2023-05-23T10:17:59.884Z,100030.56
2023-05-23T10:22:14.796Z,100037.06
2023-05-23T10:26:30.119Z,100031.84
2023-05-23T10:30:43.223Z,100023.97
2023-05-23T10:35:11.409Z,100029.53
2023-05-23T10:39:36.137Z,100029.28
2023-05-23T10:44:24.617Z,100025.03
2023-05-23T10:48:43.803Z,100023.25
2023-05-23T10:52:56.700Z,100019.81
2023-05-23T10:57:11.924Z,100009.66
2023-05-23T11:01:25.233Z,100008.06
2023-05-23T11:05:43.829Z,100021.53
2023-05-23T11:10:11.760Z,100012.44
2023-05-23T11:14:38.375Z,100019.34
2023-05-23T11:18:50.969Z,100016.19
2023-05-23T11:23:08.534Z,100015.94
2023-05-23T11:27:36.157Z,100015.19
2023-05-23T11:31:48.661Z,100018.63
2023-05-23T11:36:01.253Z,100009.72
2023-05-23T11:40:34.311Z,100010.97
2023-05-23T11:44:50.507Z,100012.72
2023-05-23T11:49:02.964Z,100020.88
2023-05-23T11:53:21.145Z,100018.63
2023-05-23T11:57:33.689Z,100020.69
2023-05-23T12:01:46.108Z,100010.63
2023-05-23T12:05:59.361Z,100007.31
2023-05-23T12:10:12.004Z,100007.19
2023-05-23T12:14:29.218Z,100005.38
2023-05-23T12:18:43.484Z,100005.78
2023-05-23T12:22:57.683Z,100013.28
2023-05-23T12:27:10.619Z,99996.75
2023-05-23T12:31:23.511Z,100012.38
2023-05-23T12:35:38.704Z,99994.03
2023-05-23T12:39:51.381Z,100004.16
2023-05-23T12:44:06.445Z,99989.34
2023-05-23T12:48:21.156Z,99995.78
2023-05-23T12:52:33.784Z,99989.34
2023-05-23T12:56:46.152Z,99989.22
2023-05-23T13:00:59.385Z,100000.22
2023-05-23T13:05:12.645Z,99990.59
2023-05-23T13:09:25.064Z,99992.56
2023-05-23T13:13:37.548Z,100002.44
2023-05-23T13:17:50.523Z,99994.22
2023-05-23T13:22:04.772Z,100001.75
2023-05-23T13:26:17.592Z,99995.66
2023-05-23T13:30:29.976Z,99986.94
2023-05-23T13:34:42.788Z,99989.81
2023-05-23T13:38:56.299Z,99988.06
2023-05-23T13:43:08.787Z,99986.50
2023-05-23T13:47:21.501Z,99995.81
2023-05-23T13:51:34.192Z,99994.88
2023-05-23T13:55:46.887Z,99996.22
2023-05-23T13:59:59.247Z,100003.63
2023-05-23T14:04:11.828Z,99990.41
2023-05-23T14:08:24.318Z,99986.75
2023-05-23T14:12:36.891Z,99990.00
2023-05-23T14:16:52.042Z,99984.94
2023-05-23T14:21:04.684Z,100001.25
2023-05-23T14:25:17.749Z,100016.94
2023-05-23T14:29:30.226Z,100009.34
2023-05-23T14:33:43.682Z,100022.91
2023-05-23T14:37:56.312Z,100046.22
2023-05-23T14:42:08.782Z,100049.94
2023-05-23T14:46:21.417Z,100051.31
2023-05-23T14:50:33.971Z,100032.59
2023-05-23T14:54:46.529Z,100047.78
2023-05-23T14:58:58.995Z,100053.03
2023-05-23T15:03:12.006Z,100041.13
2023-05-23T15:07:24.625Z,100038.75
2023-05-23T15:11:39.215Z,100031.34
2023-05-23T15:15:54.683Z,100038.63
2023-05-23T15:20:08.800Z,100045.75
2023-05-23T15:24:21.203Z,100042.91
2023-05-23T15:28:35.058Z,100045.94
2023-05-23T15:32:48.555Z,100038.69
2023-05-23T15:37:01.378Z,100034.03
2023-05-23T15:58:47.572Z,100031.03
2023-05-23T16:03:00.794Z,100018.56
2023-05-23T16:07:13.493Z,100015.59
2023-05-23T16:11:25.958Z,100034.00
2023-05-23T16:15:38.541Z,100041.66
2023-05-23T16:19:53.874Z,100028.91
2023-05-23T16:24:06.915Z,100035.09
2023-05-23T16:28:26.091Z,100042.34
2023-05-23T16:32:38.635Z,100048.84
2023-05-23T16:36:51.591Z,100039.59
2023-05-23T16:41:04.609Z,100038.97
2023-05-23T16:45:17.309Z,100049.25
2023-05-23T16:49:30.052Z,100060.84
2023-05-23T16:53:45.900Z,100064.34
2023-05-23T16:57:58.583Z,100066.16
2023-05-23T17:02:14.262Z,100061.22
2023-05-23T17:06:28.596Z,100062.78
2023-05-23T17:10:41.881Z,100071.31
2023-05-23T17:14:54.938Z,100070.06
2023-05-23T17:19:07.865Z,100059.94
2023-05-23T17:23:21.063Z,100078.59
2023-05-23T17:27:34.008Z,100072.88
2023-05-23T17:31:52.605Z,100080.28
2023-05-23T17:36:08.704Z,100089.03
2023-05-23T17:40:24.552Z,100092.44
2023-05-23T17:44:37.278Z,100095.78
2023-05-23T17:48:52.349Z,100107.75
2023-05-23T17:53:05.004Z,100108.66
2023-05-23T17:57:17.510Z,100117.41
2023-05-23T18:05:42.861Z,100110.84
2023-05-23T18:10:00.626Z,100120.28
2023-05-23T18:14:16.262Z,100127.19
2023-05-23T18:18:28.811Z,100136.56
2023-05-23T18:22:41.658Z,100135.13
2023-05-23T18:26:57.299Z,100124.44
2023-05-23T18:31:10.773Z,100129.34
2023-05-23T18:35:47.267Z,100129.41
2023-05-23T18:40:00.849Z,100122.09
2023-05-23T18:44:13.993Z,100134.09
2023-05-23T18:48:26.969Z,100141.59
2023-05-23T18:52:41.136Z,100146.13
2023-05-23T18:56:53.729Z,100139.06
2023-05-23T19:01:07.219Z,100151.97
2023-05-23T19:05:19.801Z,100159.69
2023-05-23T19:09:32.732Z,100153.94
2023-05-23T19:13:45.268Z,100162.97
2023-05-23T19:17:57.852Z,100170.81
2023-05-23T19:22:10.348Z,100170.28
2023-05-23T19:26:22.958Z,100165.34
2023-05-23T19:30:35.709Z,100183.63
2023-05-23T19:34:48.666Z,100186.59
2023-05-23T19:39:14.688Z,100188.81
2023-05-23T19:43:27.722Z,100193.88
2023-05-23T19:47:40.990Z,100210.88
2023-05-23T19:51:53.872Z,100204.84
2023-05-23T19:56:06.996Z,100221.13
2023-05-23T20:00:19.516Z,100220.66
2023-05-23T20:04:35.404Z,100220.63
2023-05-23T20:08:47.994Z,100226.66
2023-05-23T20:13:03.862Z,100220.75
2023-05-23T20:17:16.482Z,100219.81
2023-05-23T20:21:29.393Z,100221.94
2023-05-23T20:25:43.560Z,100231.16
2023-05-23T20:29:56.246Z,100230.50
2023-05-23T20:34:12.150Z,100232.75
2023-05-23T20:38:27.488Z,100233.75
2023-05-23T20:42:40.074Z,100234.88
2023-05-23T20:46:52.586Z,100237.56
2023-05-23T20:51:09.099Z,100240.84
2023-05-23T20:55:22.949Z,100240.25
2023-05-23T20:59:37.152Z,100248.91
2023-05-23T21:03:50.069Z,100252.38
2023-05-23T21:08:03.330Z,100251.91
2023-05-23T21:12:16.250Z,100255.69
2023-05-23T21:16:33.224Z,100253.25
2023-05-23T21:20:46.279Z,100261.53
2023-05-23T21:24:58.666Z,100268.34
2023-05-23T21:29:14.295Z,100264.75
2023-05-23T21:33:26.858Z,100261.72
2023-05-23T21:37:39.476Z,100264.00
2023-05-23T21:41:52.413Z,100266.31
2023-05-23T21:46:04.996Z,100264.59
2023-05-23T21:50:18.171Z,100261.81
2023-05-23T21:54:31.542Z,100264.25
2023-05-23T21:58:44.857Z,100271.59
2023-05-23T22:02:57.609Z,100268.00
2023-05-23T22:07:10.776Z,100272.13
2023-05-23T22:11:23.533Z,100256.50
2023-05-23T22:15:45.843Z,100260.22
2023-05-23T22:20:02.728Z,100258.19
2023-05-23T22:24:15.216Z,100252.59
2023-05-23T22:28:27.693Z,100247.59
2023-05-23T22:32:40.276Z,100245.31
2023-05-23T22:36:53.388Z,100248.59
2023-05-23T22:41:08.670Z,100246.06
2023-05-23T22:45:21.370Z,100240.09
2023-05-23T22:49:35.994Z,100243.19
2023-05-23T22:53:53.163Z,100235.59
2023-05-23T22:58:08.065Z,100228.78
2023-05-23T23:02:20.673Z,100228.84
2023-05-23T23:06:34.581Z,100223.03
2023-05-23T23:10:47.483Z,100216.59
2023-05-23T23:15:00.160Z,100210.44
2023-05-23T23:19:13.161Z,100204.28
2023-05-23T23:23:25.745Z,100213.84
2023-05-23T23:27:39.147Z,100214.53
2023-05-23T23:31:51.793Z,100214.63
2023-05-23T23:36:04.485Z,100217.25
2023-05-23T23:40:17.309Z,100199.06
2023-05-23T23:44:29.990Z,100208.94
2023-05-23T23:48:44.330Z,100200.47
2023-05-23T23:52:58.369Z,100198.31
2023-05-23T23:57:14.206Z,100200.97
